createdAt,value
2023-04-09T00:02:26.693Z,68.77
2023-04-09T00:04:59.437Z,68.64
2023-04-09T00:07:31.127Z,68.19
2023-04-09T00:10:02.878Z,68.27
2023-04-09T00:12:34.730Z,68.40
2023-04-09T00:15:09.677Z,68.54
2023-04-09T00:17:43.029Z,68.30
2023-04-09T00:20:14.813Z,68.36
2023-04-09T00:22:46.707Z,68.17
2023-04-09T00:25:18.905Z,68.34
2023-04-09T00:27:51.127Z,68.05
2023-04-09T00:30:23.330Z,68.13
2023-04-09T00:32:55.464Z,67.83
2023-04-09T00:35:27.300Z,67.45
2023-04-09T00:37:59.065Z,67.55
2023-04-09T00:40:31.030Z,67.84
2023-04-09T00:43:02.920Z,67.52
2023-04-09T00:45:35.014Z,67.72
2023-04-09T00:48:07.488Z,68.02
2023-04-09T00:50:39.250Z,68.34
2023-04-09T00:53:12.241Z,68.29
2023-04-09T00:55:44.814Z,68.44
2023-04-09T00:58:17.125Z,68.46
2023-04-09T01:00:48.866Z,68.39
2023-04-09T01:03:20.785Z,67.98
2023-04-09T01:06:07.741Z,67.28
2023-04-09T01:08:48.589Z,67.29
2023-04-09T01:11:38.772Z,67.30
2023-04-09T01:14:56.917Z,67.49
2023-04-09T01:17:42.982Z,67.53
2023-04-09T01:20:21.052Z,67.51
2023-04-09T01:23:10.942Z,67.73
2023-04-09T01:25:47.640Z,67.28
2023-04-09T01:28:42.649Z,67.75
2023-04-09T01:31:18.427Z,67.82
2023-04-09T01:33:52.548Z,68.33
2023-04-09T01:36:26.497Z,68.14
2023-04-09T01:39:01.163Z,68.27
2023-04-09T01:41:34.563Z,67.98
2023-04-09T01:44:08.222Z,67.94
2023-04-09T01:46:40.229Z,68.43
2023-04-09T01:49:12.485Z,68.45
2023-04-09T01:51:44.570Z,68.65
2023-04-09T01:54:16.949Z,68.64
2023-04-09T01:56:49.096Z,68.90
2023-04-09T01:59:23.622Z,68.63
2023-04-09T02:02:11.372Z,68.87
2023-04-09T02:04:48.016Z,68.90
2023-04-09T02:07:32.676Z,68.81
2023-04-09T02:10:06.545Z,68.99
2023-04-09T02:12:41.178Z,68.51
2023-04-09T02:15:13.809Z,68.67
2023-04-09T02:17:45.726Z,68.45
2023-04-09T02:20:18.974Z,69.09
2023-04-09T02:22:51.214Z,68.78
2023-04-09T02:25:23.167Z,68.57
2023-04-09T02:27:54.882Z,68.89
2023-04-09T02:30:26.543Z,69.19
2023-04-09T02:32:58.276Z,69.05
2023-04-09T02:35:30.016Z,68.84
2023-04-09T02:38:02.135Z,68.75
2023-04-09T02:40:33.818Z,68.68
2023-04-09T02:43:05.554Z,68.76
2023-04-09T02:45:37.318Z,68.55
2023-04-09T02:48:09.097Z,68.10
2023-04-09T02:50:41.020Z,68.67
2023-04-09T02:53:12.870Z,68.50
2023-04-09T02:55:44.621Z,68.59
2023-04-09T02:58:16.353Z,69.07
2023-04-09T03:00:48.377Z,69.09
2023-04-09T03:03:20.244Z,69.05
2023-04-09T03:05:52.184Z,69.28
2023-04-09T03:08:24.009Z,69.81
2023-04-09T03:10:55.708Z,69.52
2023-04-09T03:13:30.790Z,69.76
2023-04-09T03:16:03.305Z,69.73
2023-04-09T03:18:35.215Z,69.97
2023-04-09T03:21:07.921Z,70.19
2023-04-09T03:23:42.421Z,69.32
2023-04-09T03:26:14.076Z,69.29
2023-04-09T03:28:52.984Z,69.35
2023-04-09T03:31:25.004Z,69.34
2023-04-09T03:33:56.736Z,69.61
2023-04-09T03:36:31.615Z,69.56
2023-04-09T03:39:15.219Z,69.51
2023-04-09T03:41:48.805Z,69.05
2023-04-09T03:44:22.303Z,69.72
2023-04-09T03:47:15.535Z,69.63
2023-04-09T03:49:47.483Z,69.34
2023-04-09T03:52:25.081Z,69.42
2023-04-09T03:55:05.444Z,69.63
2023-04-09T03:57:38.322Z,69.84
2023-04-09T04:00:13.988Z,69.91
2023-04-09T04:03:24.047Z,69.99
2023-04-09T04:06:12.117Z,69.75
2023-04-09T04:09:02.502Z,70.31
2023-04-09T04:11:58.931Z,69.98
2023-04-09T04:14:43.938Z,70.08
2023-04-09T04:17:26.180Z,70.22
2023-04-09T04:19:59.499Z,69.90
2023-04-09T04:22:34.675Z,69.79
2023-04-09T04:25:09.174Z,69.38
2023-04-09T04:27:43.896Z,70.17
2023-04-09T04:30:17.501Z,70.42
2023-04-09T04:33:01.167Z,70.85
2023-04-09T04:35:38.851Z,71.21
2023-04-09T04:38:13.624Z,71.36
2023-04-09T04:40:45.508Z,71.83
2023-04-09T04:43:17.328Z,72.38
2023-04-09T04:45:49.199Z,72.25
2023-04-09T04:48:21.688Z,72.08
2023-04-09T04:50:58.540Z,72.64
2023-04-09T04:53:34.661Z,72.47
2023-04-09T04:56:16.727Z,73.02
2023-04-09T04:59:06.051Z,73.06
2023-04-09T05:01:50.194Z,73.34
2023-04-09T05:04:21.983Z,72.30
2023-04-09T05:06:53.736Z,72.74
2023-04-09T05:09:27.851Z,72.97
2023-04-09T05:12:17.875Z,72.79
2023-04-09T05:14:53.587Z,73.18
2023-04-09T05:17:26.045Z,72.99
2023-04-09T05:19:58.531Z,73.13
2023-04-09T05:22:38.270Z,73.58
2023-04-09T05:25:10.840Z,73.76
2023-04-09T05:27:47.344Z,73.74
2023-04-09T05:30:19.902Z,73.90
2023-04-09T05:32:51.770Z,73.45
2023-04-09T05:35:23.683Z,73.01
2023-04-09T05:37:55.639Z,72.74
2023-04-09T05:40:27.417Z,72.96
2023-04-09T05:42:59.791Z,72.72
2023-04-09T05:45:44.797Z,72.66
2023-04-09T05:48:18.367Z,72.29
2023-04-09T05:50:55.588Z,72.67
2023-04-09T05:53:32.105Z,72.55
2023-04-09T05:56:04.152Z,72.56
2023-04-09T05:58:51.416Z,72.59
2023-04-09T06:01:23.230Z,72.34
2023-04-09T06:03:57.708Z,72.57
2023-04-09T06:06:30.017Z,72.13
2023-04-09T06:09:01.860Z,71.70
2023-04-09T06:11:34.512Z,71.50
2023-04-09T06:14:07.291Z,72.67
2023-04-09T06:16:39.000Z,72.23
2023-04-09T06:19:12.442Z,72.90
2023-04-09T06:21:44.224Z,72.28
2023-04-09T06:24:16.031Z,72.52
2023-04-09T06:26:47.702Z,72.06
2023-04-09T06:29:19.514Z,71.99
2023-04-09T06:31:51.320Z,72.12
2023-04-09T06:34:23.072Z,71.87
2023-04-09T06:36:54.807Z,72.16
2023-04-09T06:39:26.478Z,72.02
2023-04-09T06:41:58.144Z,71.35
2023-04-09T06:44:41.371Z,71.13
2023-04-09T06:47:13.039Z,71.02
2023-04-09T06:49:44.708Z,71.01
2023-04-09T06:52:16.517Z,71.46
2023-04-09T06:54:48.197Z,71.31
2023-04-09T06:57:19.881Z,71.62
2023-04-09T06:59:51.654Z,71.49
2023-04-09T07:02:23.531Z,71.94
2023-04-09T07:04:55.445Z,70.71
2023-04-09T07:07:27.151Z,71.16
2023-04-09T07:09:58.906Z,71.05
2023-04-09T07:12:32.396Z,70.90
2023-04-09T07:15:06.539Z,70.95
2023-04-09T07:17:38.464Z,70.80
2023-04-09T07:20:10.815Z,70.68
2023-04-09T07:22:42.504Z,71.30
2023-04-09T07:25:15.366Z,70.92
2023-04-09T07:27:47.212Z,70.25
2023-04-09T07:30:19.016Z,70.11
2023-04-09T07:32:50.903Z,69.59
2023-04-09T07:35:23.778Z,69.46
2023-04-09T07:37:55.880Z,69.42
2023-04-09T07:40:27.660Z,68.83
2023-04-09T07:42:59.352Z,69.15
2023-04-09T07:45:31.107Z,68.89
2023-04-09T07:48:02.830Z,68.41
2023-04-09T07:50:34.767Z,68.88
2023-04-09T07:53:06.474Z,68.51
2023-04-09T07:55:38.216Z,69.48
2023-04-09T07:58:10.200Z,68.81
2023-04-09T08:00:42.100Z,69.08
2023-04-09T08:03:14.275Z,68.78
2023-04-09T08:05:46.202Z,68.41
2023-04-09T08:08:17.989Z,67.47
2023-04-09T08:10:49.726Z,67.15
2023-04-09T08:13:24.246Z,66.88
2023-04-09T08:15:56.058Z,66.44
2023-04-09T08:18:28.410Z,65.54
2023-04-09T08:21:04.747Z,64.78
2023-04-09T08:23:36.499Z,64.43
2023-04-09T08:26:08.209Z,62.96
2023-04-09T08:28:39.954Z,60.92
2023-04-09T08:31:11.769Z,58.89
2023-04-09T08:33:43.502Z,57.83
2023-04-09T08:36:16.066Z,57.07
2023-04-09T08:38:48.791Z,56.93
2023-04-09T08:41:22.029Z,56.63
2023-04-09T08:43:58.206Z,57.42
2023-04-09T08:46:32.167Z,56.91
2023-04-09T08:49:04.043Z,56.80
2023-04-09T08:51:35.934Z,56.84
2023-04-09T08:54:08.017Z,57.33
2023-04-09T08:56:39.741Z,54.63
2023-04-09T08:59:11.505Z,53.75
2023-04-09T09:01:43.367Z,50.77
2023-04-09T09:04:15.573Z,49.82
2023-04-09T09:06:47.400Z,47.93
2023-04-09T09:09:19.083Z,48.06
2023-04-09T09:11:52.035Z,46.91
2023-04-09T09:14:23.804Z,47.18
2023-04-09T09:16:55.536Z,44.56
2023-04-09T09:19:27.188Z,43.13
2023-04-09T09:22:06.661Z,40.38
2023-04-09T09:24:52.891Z,41.49
2023-04-09T09:27:39.306Z,41.20
2023-04-09T09:30:24.703Z,41.41
2023-04-09T09:33:09.752Z,42.51
2023-04-09T09:35:51.560Z,43.59
2023-04-09T09:38:24.560Z,43.40
2023-04-09T09:40:56.734Z,42.31
2023-04-09T09:43:42.239Z,42.89
2023-04-09T09:46:14.948Z,43.25
2023-04-09T09:48:46.893Z,42.66
2023-04-09T09:51:19.727Z,41.61
2023-04-09T09:53:54.651Z,41.16
2023-04-09T09:56:34.754Z,41.68
2023-04-09T09:59:11.019Z,42.42
2023-04-09T10:01:44.058Z,42.35
2023-04-09T10:04:17.402Z,42.44
2023-04-09T10:06:52.160Z,42.09
2023-04-09T10:09:27.890Z,41.85
2023-04-09T10:12:00.715Z,41.80
2023-04-09T10:14:33.737Z,42.15
2023-04-09T10:17:05.852Z,41.52
2023-04-09T10:19:46.784Z,41.15
2023-04-09T10:22:25.659Z,41.03
2023-04-09T10:24:58.164Z,41.22
2023-04-09T10:27:29.928Z,41.55
2023-04-09T10:30:01.970Z,40.96
2023-04-09T10:32:36.283Z,41.16
2023-04-09T10:35:09.628Z,40.84
2023-04-09T10:37:50.718Z,41.26
2023-04-09T10:40:22.516Z,40.89
2023-04-09T10:42:56.385Z,41.74
2023-04-09T10:45:40.712Z,42.09
2023-04-09T10:48:14.103Z,42.19
2023-04-09T10:50:46.358Z,42.07
2023-04-09T10:53:23.770Z,41.95
2023-04-09T10:55:56.330Z,42.16
2023-04-09T10:58:28.127Z,42.48
2023-04-09T11:01:01.746Z,42.91
2023-04-09T11:03:42.968Z,43.59
2023-04-09T11:06:20.737Z,43.93
2023-04-09T11:08:52.582Z,43.90
2023-04-09T11:11:28.313Z,44.06
2023-04-09T11:14:03.275Z,44.75
2023-04-09T11:16:34.991Z,45.40
2023-04-09T11:19:06.813Z,45.39
2023-04-09T11:21:46.250Z,46.00
2023-04-09T11:24:19.054Z,46.41
2023-04-09T11:26:51.301Z,46.62
2023-04-09T11:29:23.206Z,47.51
2023-04-09T11:31:54.999Z,48.53
2023-04-09T11:34:29.717Z,49.16
2023-04-09T11:37:07.108Z,49.30
2023-04-09T11:39:38.852Z,49.82
2023-04-09T11:42:18.108Z,50.29
2023-04-09T11:44:50.392Z,50.71
2023-04-09T11:47:22.513Z,51.46
2023-04-09T11:49:54.449Z,52.54
2023-04-09T11:52:27.960Z,52.60
2023-04-09T11:55:04.600Z,52.92
2023-04-09T11:57:46.898Z,54.44
2023-04-09T12:00:21.293Z,54.05
2023-04-09T12:03:04.640Z,54.32
2023-04-09T12:05:38.424Z,53.80
2023-04-09T12:08:12.054Z,53.50
2023-04-09T12:10:44.550Z,53.88
2023-04-09T12:13:16.795Z,54.52
2023-04-09T12:15:50.162Z,54.32
2023-04-09T12:18:23.441Z,54.91
2023-04-09T12:20:55.219Z,55.83
2023-04-09T12:23:26.916Z,55.77
2023-04-09T12:26:02.654Z,56.36
2023-04-09T12:28:34.440Z,56.52
2023-04-09T12:31:09.904Z,56.69
2023-04-09T12:33:42.700Z,56.75
2023-04-09T12:36:14.416Z,56.57
2023-04-09T12:38:46.172Z,57.32
2023-04-09T12:41:17.936Z,57.78
2023-04-09T12:43:49.931Z,57.97
2023-04-09T12:46:21.890Z,57.79
2023-04-09T12:48:53.958Z,57.61
2023-04-09T12:51:25.891Z,57.81
2023-04-09T12:53:57.581Z,58.00
2023-04-09T12:56:29.879Z,57.64
2023-04-09T12:59:01.924Z,57.99
2023-04-09T13:01:33.765Z,58.23
2023-04-09T13:04:05.778Z,58.55
2023-04-09T13:06:40.002Z,59.45
2023-04-09T13:09:11.757Z,59.84
2023-04-09T13:11:43.534Z,59.96
2023-04-09T13:14:15.675Z,59.49
2023-04-09T13:16:52.467Z,59.33
2023-04-09T13:19:24.230Z,59.24
2023-04-09T13:21:56.302Z,59.13
2023-04-09T13:24:28.082Z,58.51
2023-04-09T13:26:59.917Z,58.26
2023-04-09T13:29:32.014Z,58.50
2023-04-09T13:32:07.257Z,58.75
2023-04-09T13:34:39.664Z,58.35
2023-04-09T13:37:11.533Z,58.05
2023-04-09T13:39:44.752Z,57.47
2023-04-09T13:42:17.130Z,56.85
2023-04-09T13:44:48.814Z,56.42
2023-04-09T13:47:21.151Z,55.77
2023-04-09T13:49:53.319Z,55.45
2023-04-09T13:52:26.836Z,55.79
2023-04-09T13:55:01.397Z,55.64
2023-04-09T13:57:33.161Z,55.31
2023-04-09T14:00:05.913Z,55.61
2023-04-09T14:02:38.310Z,55.39
2023-04-09T14:05:11.528Z,54.46
2023-04-09T14:07:43.260Z,54.63
2023-04-09T14:10:15.888Z,54.83
2023-04-09T14:12:47.636Z,54.71
2023-04-09T14:15:19.492Z,54.93
2023-04-09T14:17:51.360Z,55.08
2023-04-09T14:20:24.673Z,54.87
2023-04-09T14:22:56.452Z,54.75
2023-04-09T14:25:28.186Z,54.87
2023-04-09T14:28:00.086Z,55.08
2023-04-09T14:30:31.762Z,54.97
2023-04-09T14:33:03.801Z,55.26
2023-04-09T14:35:35.831Z,55.04
2023-04-09T14:38:07.775Z,54.77
2023-04-09T14:40:39.488Z,54.95
2023-04-09T14:43:11.204Z,55.06
2023-04-09T14:45:42.930Z,55.06
2023-04-09T14:48:14.633Z,55.08
2023-04-09T14:50:46.421Z,55.15
2023-04-09T14:53:21.072Z,55.25
2023-04-09T14:55:52.693Z,55.38
2023-04-09T14:58:24.377Z,55.61
2023-04-09T15:00:56.770Z,55.81
2023-04-09T15:03:28.758Z,55.94
2023-04-09T15:06:00.683Z,56.09
2023-04-09T15:08:32.408Z,55.54
2023-04-09T15:11:04.327Z,55.64
2023-04-09T15:13:36.057Z,55.74
2023-04-09T15:16:08.037Z,56.13
2023-04-09T15:18:39.842Z,56.32
2023-04-09T15:21:11.602Z,56.63
2023-04-09T15:23:43.417Z,56.78
2023-04-09T15:26:15.367Z,56.78
2023-04-09T15:28:47.246Z,56.98
2023-04-09T15:31:19.540Z,57.05
2023-04-09T15:33:51.345Z,57.20
2023-04-09T15:36:23.064Z,57.14
2023-04-09T15:38:55.245Z,57.04
2023-04-09T15:41:27.133Z,56.29
2023-04-09T15:43:58.871Z,55.70
2023-04-09T15:46:32.578Z,55.73
2023-04-09T15:49:04.918Z,56.16
2023-04-09T15:51:36.651Z,56.02
2023-04-09T15:54:08.421Z,56.37
2023-04-09T15:56:40.380Z,56.47
2023-04-09T15:59:12.217Z,55.50
2023-04-09T16:01:44.289Z,54.59
2023-04-09T16:04:16.181Z,53.79
2023-04-09T16:06:48.314Z,54.08
2023-04-09T16:09:19.983Z,53.82
2023-04-09T16:11:51.825Z,53.80
2023-04-09T16:14:23.661Z,53.99
2023-04-09T16:16:55.910Z,53.53
2023-04-09T16:19:27.757Z,53.44
2023-04-09T16:21:59.524Z,53.37
2023-04-09T16:24:32.367Z,53.85
2023-04-09T16:27:04.132Z,53.57
2023-04-09T16:29:36.010Z,53.37
2023-04-09T16:32:10.954Z,52.77
2023-04-09T16:34:42.684Z,52.82
2023-04-09T16:37:14.471Z,52.97
2023-04-09T16:39:46.240Z,53.26
2023-04-09T16:42:18.241Z,53.24
2023-04-09T16:44:50.056Z,53.59
2023-04-09T16:47:21.824Z,53.45
2023-04-09T16:49:53.554Z,53.52
2023-04-09T16:52:25.999Z,52.99
2023-04-09T16:54:57.754Z,53.11
2023-04-09T16:57:29.422Z,53.44
2023-04-09T17:00:01.684Z,53.36
2023-04-09T17:02:34.396Z,53.13
2023-04-09T17:05:07.670Z,52.96
2023-04-09T17:07:39.524Z,53.70
2023-04-09T17:10:11.563Z,53.93
2023-04-09T17:12:43.607Z,53.81
2023-04-09T17:15:15.533Z,54.18
2023-04-09T17:17:49.505Z,54.14
2023-04-09T17:20:24.984Z,53.73
2023-04-09T17:22:56.855Z,53.25
2023-04-09T17:25:29.400Z,53.67
2023-04-09T17:28:01.736Z,53.51
2023-04-09T17:30:33.561Z,54.14
2023-04-09T17:33:05.491Z,54.37
2023-04-09T17:35:37.371Z,55.06
2023-04-09T17:38:09.218Z,55.49
2023-04-09T17:40:41.069Z,55.79
2023-04-09T17:43:14.183Z,56.36
2023-04-09T17:45:46.151Z,57.12
2023-04-09T17:48:18.011Z,57.64
2023-04-09T17:50:50.182Z,58.58
2023-04-09T17:53:22.375Z,59.89
2023-04-09T17:55:54.124Z,60.90
2023-04-09T17:58:26.083Z,61.81
2023-04-09T18:00:59.532Z,62.09
2023-04-09T18:03:31.678Z,63.08
2023-04-09T18:06:03.886Z,62.82
2023-04-09T18:08:36.860Z,63.71
2023-04-09T18:11:13.192Z,63.74
2023-04-09T18:13:45.481Z,64.14
2023-04-09T18:16:19.552Z,64.28
2023-04-09T18:18:54.086Z,64.50
2023-04-09T18:21:27.070Z,65.32
2023-04-09T18:23:59.216Z,65.85
2023-04-09T18:26:31.792Z,66.01
2023-04-09T18:29:03.667Z,65.99
2023-04-09T18:31:35.677Z,66.54
2023-04-09T18:34:07.471Z,67.78
2023-04-09T18:36:42.866Z,66.84
2023-04-09T18:39:15.241Z,66.77
2023-04-09T18:41:47.120Z,66.36
2023-04-09T18:44:18.810Z,66.36
2023-04-09T18:46:50.662Z,65.99
2023-04-09T18:49:22.497Z,65.60
2023-04-09T18:51:54.772Z,65.74
2023-04-09T18:54:26.557Z,65.16
2023-04-09T18:56:58.367Z,66.17
2023-04-09T18:59:31.611Z,66.21
2023-04-09T19:02:05.147Z,66.24
2023-04-09T19:04:40.028Z,65.86
2023-04-09T19:07:12.187Z,67.19
2023-04-09T19:09:44.603Z,67.97
2023-04-09T19:12:17.308Z,67.78
2023-04-09T19:14:49.043Z,68.13
2023-04-09T19:17:21.334Z,68.34
2023-04-09T19:19:53.144Z,68.30
2023-04-09T19:22:24.949Z,69.32
2023-04-09T19:24:56.640Z,69.38
2023-04-09T19:27:28.581Z,70.25
2023-04-09T19:30:01.183Z,69.96
2023-04-09T19:32:36.090Z,69.72
2023-04-09T19:35:08.385Z,69.92
2023-04-09T19:37:40.544Z,69.71
2023-04-09T19:40:15.474Z,69.81
2023-04-09T19:42:47.218Z,70.36
2023-04-09T19:45:18.946Z,69.96
2023-04-09T19:47:50.740Z,70.68
2023-04-09T19:50:22.754Z,71.67
2023-04-09T19:52:54.997Z,72.78
2023-04-09T19:55:26.881Z,72.41
2023-04-09T19:57:58.938Z,72.42
2023-04-09T20:00:30.787Z,72.03
2023-04-09T20:03:03.236Z,72.01
2023-04-09T20:05:35.257Z,72.20
2023-04-09T20:08:12.246Z,72.60
2023-04-09T20:10:47.371Z,72.26
2023-04-09T20:13:22.057Z,72.45
2023-04-09T20:15:53.764Z,72.95
2023-04-09T20:18:25.594Z,73.14
2023-04-09T20:20:57.371Z,72.62
2023-04-09T20:23:30.200Z,72.48
2023-04-09T20:26:02.673Z,73.27
2023-04-09T20:28:35.185Z,72.64
2023-04-09T20:31:07.781Z,72.70
2023-04-09T20:33:39.494Z,73.15
2023-04-09T20:36:15.914Z,73.10
2023-04-09T20:38:49.466Z,72.80
2023-04-09T20:41:21.216Z,73.06
2023-04-09T20:43:52.975Z,72.75
2023-04-09T20:46:24.788Z,72.77
2023-04-09T20:48:56.554Z,72.81
2023-04-09T20:51:28.374Z,72.99
2023-04-09T20:54:00.360Z,73.10
2023-04-09T20:56:32.157Z,72.84
2023-04-09T20:59:03.946Z,73.37
2023-04-09T21:01:36.193Z,73.11
2023-04-09T21:04:08.958Z,73.38
2023-04-09T21:06:41.145Z,73.94
2023-04-09T21:09:12.857Z,72.85
2023-04-09T21:11:44.637Z,72.86
2023-04-09T21:14:16.372Z,73.30
2023-04-09T21:16:49.195Z,73.49
2023-04-09T21:19:21.046Z,73.47
2023-04-09T21:21:52.862Z,74.05
2023-04-09T21:24:24.636Z,73.36
2023-04-09T21:26:56.853Z,73.26
2023-04-09T21:29:28.592Z,73.00
2023-04-09T21:32:01.015Z,73.26
2023-04-09T21:34:32.979Z,73.27
2023-04-09T21:37:04.720Z,73.16
2023-04-09T21:39:36.511Z,73.62
2023-04-09T21:42:08.847Z,73.19
2023-04-09T21:44:40.558Z,73.18
2023-04-09T21:47:13.094Z,73.75
2023-04-09T21:49:46.432Z,73.44
2023-04-09T21:52:18.249Z,73.52
2023-04-09T21:54:50.031Z,73.39
2023-04-09T21:57:22.666Z,72.69
2023-04-09T21:59:54.431Z,72.83
2023-04-09T22:02:27.576Z,72.47
2023-04-09T22:05:00.005Z,71.92
2023-04-09T22:07:31.864Z,71.87
2023-04-09T22:10:03.721Z,71.54
2023-04-09T22:12:37.160Z,73.20
2023-04-09T22:15:09.429Z,72.72
2023-04-09T22:17:41.660Z,73.18
2023-04-09T22:20:14.098Z,73.89
2023-04-09T22:22:45.847Z,74.02
2023-04-09T22:25:17.584Z,73.76
2023-04-09T22:27:53.294Z,73.63
2023-04-09T22:30:25.045Z,73.89
2023-04-09T22:32:56.927Z,73.84
2023-04-09T22:35:28.674Z,73.78
2023-04-09T22:38:00.412Z,74.20
2023-04-09T22:40:32.118Z,73.86
2023-04-09T22:43:04.792Z,74.21
2023-04-09T22:45:36.771Z,74.44
2023-04-09T22:48:08.597Z,73.88
2023-04-09T22:50:40.380Z,74.39
2023-04-09T22:53:12.316Z,74.32
2023-04-09T22:55:46.808Z,74.63
2023-04-09T22:58:19.300Z,74.53
2023-04-09T23:00:51.050Z,74.96
2023-04-09T23:03:22.969Z,74.17
2023-04-09T23:05:57.322Z,73.96
2023-04-09T23:08:29.051Z,74.51
2023-04-09T23:11:01.183Z,74.28
2023-04-09T23:13:32.920Z,73.35
2023-04-09T23:16:09.217Z,73.44
2023-04-09T23:18:41.051Z,73.95
2023-04-09T23:21:13.015Z,73.78
2023-04-09T23:23:44.763Z,73.08
2023-04-09T23:26:16.592Z,73.72
2023-04-09T23:28:48.400Z,73.51
2023-04-09T23:31:21.220Z,73.50
2023-04-09T23:33:53.293Z,73.21
2023-04-09T23:36:26.128Z,72.75
2023-04-09T23:38:57.799Z,72.05
2023-04-09T23:41:29.563Z,72.68
2023-04-09T23:44:01.379Z,72.98
2023-04-09T23:46:33.067Z,73.39
2023-04-09T23:49:04.816Z,73.30
2023-04-09T23:51:39.248Z,73.64
2023-04-09T23:54:11.045Z,72.92
2023-04-09T23:56:44.148Z,73.16
2023-04-09T23:59:15.879Z,73.96
